sensor_id;sensor_type;location;lat;lon;timestamp;P1;durP1;ratioP1;P2;durP2;ratioP2
20511;SDS011;10414;52.074;5.126;2023-07-29T00:00:45;5.65;;;1.25;;
20511;SDS011;10414;52.074;5.126;2023-07-29T00:03:12;6.32;;;1.25;;
20511;SDS011;10414;52.074;5.126;2023-07-29T00:05:42;3.65;;;1.38;;
20511;SDS011;10414;52.074;5.126;2023-07-29T00:08:11;6.93;;;1.30;;
20511;SDS011;10414;52.074;5.126;2023-07-29T00:10:38;5.05;;;1.55;;
20511;SDS011;10414;52.074;5.126;2023-07-29T00:13:05;4.22;;;1.55;;
20511;SDS011;10414;52.074;5.126;2023-07-29T00:15:32;6.20;;;1.83;;
20511;SDS011;10414;52.074;5.126;2023-07-29T00:18:01;8.43;;;2.05;;
20511;SDS011;10414;52.074;5.126;2023-07-29T00:20:28;6.65;;;1.70;;
20511;SDS011;10414;52.074;5.126;2023-07-29T00:22:59;5.45;;;1.50;;
20511;SDS011;10414;52.074;5.126;2023-07-29T00:25:30;4.93;;;1.55;;
20511;SDS011;10414;52.074;5.126;2023-07-29T00:27:57;4.65;;;1.75;;
20511;SDS011;10414;52.074;5.126;2023-07-29T00:30:25;6.13;;;1.73;;
20511;SDS011;10414;52.074;5.126;2023-07-29T00:32:52;8.50;;;1.70;;
20511;SDS011;10414;52.074;5.126;2023-07-29T00:35:23;6.43;;;1.80;;
20511;SDS011;10414;52.074;5.126;2023-07-29T00:37:49;6.10;;;1.70;;
20511;SDS011;10414;52.074;5.126;2023-07-29T00:40:20;7.72;;;2.00;;
20511;SDS011;10414;52.074;5.126;2023-07-29T00:42:54;4.65;;;1.70;;
20511;SDS011;10414;52.074;5.126;2023-07-29T00:45:23;7.45;;;2.25;;
20511;SDS011;10414;52.074;5.126;2023-07-29T00:47:51;6.13;;;2.00;;
20511;SDS011;10414;52.074;5.126;2023-07-29T00:50:17;6.97;;;2.40;;
20511;SDS011;10414;52.074;5.126;2023-07-29T00:52:48;6.53;;;2.50;;
20511;SDS011;10414;52.074;5.126;2023-07-29T00:55:15;6.28;;;2.50;;
20511;SDS011;10414;52.074;5.126;2023-07-29T00:57:42;6.53;;;2.53;;
20511;SDS011;10414;52.074;5.126;2023-07-29T01:00:14;7.15;;;2.60;;
20511;SDS011;10414;52.074;5.126;2023-07-29T01:02:42;5.80;;;2.58;;
20511;SDS011;10414;52.074;5.126;2023-07-29T01:05:09;6.68;;;2.50;;
20511;SDS011;10414;52.074;5.126;2023-07-29T01:10:10;10.52;;;2.60;;
20511;SDS011;10414;52.074;5.126;2023-07-29T01:12:47;9.98;;;2.53;;
20511;SDS011;10414;52.074;5.126;2023-07-29T01:15:24;7.93;;;2.60;;
20511;SDS011;10414;52.074;5.126;2023-07-29T01:17:59;6.95;;;2.80;;
20511;SDS011;10414;52.074;5.126;2023-07-29T01:20:31;8.00;;;3.42;;
20511;SDS011;10414;52.074;5.126;2023-07-29T01:23:01;7.40;;;2.73;;
20511;SDS011;10414;52.074;5.126;2023-07-29T01:25:29;8.38;;;3.10;;
20511;SDS011;10414;52.074;5.126;2023-07-29T01:27:56;9.95;;;3.25;;
20511;SDS011;10414;52.074;5.126;2023-07-29T01:30:25;7.70;;;3.05;;
20511;SDS011;10414;52.074;5.126;2023-07-29T01:32:59;7.68;;;3.10;;
20511;SDS011;10414;52.074;5.126;2023-07-29T01:35:31;8.27;;;3.10;;
20511;SDS011;10414;52.074;5.126;2023-07-29T01:38:09;9.68;;;3.63;;
20511;SDS011;10414;52.074;5.126;2023-07-29T01:40:42;9.20;;;3.72;;
20511;SDS011;10414;52.074;5.126;2023-07-29T01:43:09;8.15;;;3.92;;
20511;SDS011;10414;52.074;5.126;2023-07-29T01:45:37;10.65;;;4.05;;
20511;SDS011;10414;52.074;5.126;2023-07-29T01:48:04;10.88;;;4.38;;
20511;SDS011;10414;52.074;5.126;2023-07-29T01:50:32;9.45;;;4.22;;
20511;SDS011;10414;52.074;5.126;2023-07-29T01:52:58;9.57;;;4.32;;
20511;SDS011;10414;52.074;5.126;2023-07-29T01:55:25;13.68;;;4.68;;
20511;SDS011;10414;52.074;5.126;2023-07-29T01:57:54;11.63;;;4.43;;
20511;SDS011;10414;52.074;5.126;2023-07-29T02:00:21;10.82;;;4.50;;
20511;SDS011;10414;52.074;5.126;2023-07-29T02:02:48;11.32;;;4.45;;
20511;SDS011;10414;52.074;5.126;2023-07-29T02:05:17;11.15;;;4.38;;
20511;SDS011;10414;52.074;5.126;2023-07-29T02:07:44;10.77;;;4.30;;
20511;SDS011;10414;52.074;5.126;2023-07-29T02:10:11;10.60;;;4.30;;
20511;SDS011;10414;52.074;5.126;2023-07-29T02:12:38;9.02;;;3.92;;
20511;SDS011;10414;52.074;5.126;2023-07-29T02:15:07;7.22;;;3.70;;
20511;SDS011;10414;52.074;5.126;2023-07-29T02:17:34;10.70;;;3.60;;
20511;SDS011;10414;52.074;5.126;2023-07-29T02:20:01;8.18;;;3.03;;
20511;SDS011;10414;52.074;5.126;2023-07-29T02:22:29;6.88;;;3.13;;
20511;SDS011;10414;52.074;5.126;2023-07-29T02:24:58;10.95;;;3.72;;
20511;SDS011;10414;52.074;5.126;2023-07-29T02:27:24;7.70;;;3.08;;
20511;SDS011;10414;52.074;5.126;2023-07-29T02:29:52;8.50;;;2.97;;
20511;SDS011;10414;52.074;5.126;2023-07-29T02:32:25;9.57;;;2.95;;
20511;SDS011;10414;52.074;5.126;2023-07-29T02:34:54;8.02;;;2.95;;
20511;SDS011;10414;52.074;5.126;2023-07-29T02:37:21;7.43;;;3.20;;
20511;SDS011;10414;52.074;5.126;2023-07-29T02:39:51;7.88;;;2.63;;
20511;SDS011;10414;52.074;5.126;2023-07-29T02:42:17;6.17;;;2.40;;
20511;SDS011;10414;52.074;5.126;2023-07-29T02:44:44;6.95;;;2.38;;
20511;SDS011;10414;52.074;5.126;2023-07-29T02:47:11;6.22;;;2.55;;
20511;SDS011;10414;52.074;5.126;2023-07-29T02:49:40;5.72;;;2.50;;
20511;SDS011;10414;52.074;5.126;2023-07-29T02:52:06;6.05;;;2.20;;
20511;SDS011;10414;52.074;5.126;2023-07-29T02:54:33;7.40;;;2.50;;
20511;SDS011;10414;52.074;5.126;2023-07-29T02:57:00;5.32;;;2.15;;
20511;SDS011;10414;52.074;5.126;2023-07-29T02:59:27;8.02;;;2.40;;
20511;SDS011;10414;52.074;5.126;2023-07-29T03:01:58;5.72;;;2.50;;
20511;SDS011;10414;52.074;5.126;2023-07-29T03:04:25;5.10;;;2.42;;
20511;SDS011;10414;52.074;5.126;2023-07-29T03:06:53;6.25;;;2.45;;
20511;SDS011;10414;52.074;5.126;2023-07-29T03:09:20;6.15;;;2.35;;
20511;SDS011;10414;52.074;5.126;2023-07-29T03:11:47;5.82;;;2.33;;
20511;SDS011;10414;52.074;5.126;2023-07-29T03:14:14;7.70;;;2.45;;
20511;SDS011;10414;52.074;5.126;2023-07-29T03:16:43;5.57;;;2.35;;
20511;SDS011;10414;52.074;5.126;2023-07-29T03:19:10;6.93;;;2.22;;
20511;SDS011;10414;52.074;5.126;2023-07-29T03:21:37;6.40;;;1.95;;
20511;SDS011;10414;52.074;5.126;2023-07-29T03:24:05;5.75;;;2.30;;
20511;SDS011;10414;52.074;5.126;2023-07-29T03:26:35;5.90;;;2.03;;
20511;SDS011;10414;52.074;5.126;2023-07-29T03:29:01;7.40;;;2.10;;
20511;SDS011;10414;52.074;5.126;2023-07-29T03:31:28;5.10;;;2.33;;
20511;SDS011;10414;52.074;5.126;2023-07-29T03:33:55;6.30;;;2.40;;
20511;SDS011;10414;52.074;5.126;2023-07-29T03:36:22;6.43;;;2.65;;
20511;SDS011;10414;52.074;5.126;2023-07-29T03:38:50;5.80;;;2.15;;
20511;SDS011;10414;52.074;5.126;2023-07-29T03:41:24;5.28;;;2.42;;
20511;SDS011;10414;52.074;5.126;2023-07-29T03:43:51;6.32;;;2.38;;
20511;SDS011;10414;52.074;5.126;2023-07-29T03:46:18;5.38;;;2.00;;
20511;SDS011;10414;52.074;5.126;2023-07-29T03:48:46;9.13;;;2.50;;
20511;SDS011;10414;52.074;5.126;2023-07-29T03:51:13;4.95;;;2.50;;
20511;SDS011;10414;52.074;5.126;2023-07-29T03:53:40;7.47;;;2.42;;
20511;SDS011;10414;52.074;5.126;2023-07-29T03:56:07;5.72;;;2.30;;
20511;SDS011;10414;52.074;5.126;2023-07-29T03:58:35;5.55;;;2.53;;
20511;SDS011;10414;52.074;5.126;2023-07-29T04:01:02;6.40;;;2.40;;
20511;SDS011;10414;52.074;5.126;2023-07-29T04:03:35;4.57;;;2.17;;
20511;SDS011;10414;52.074;5.126;2023-07-29T04:06:02;5.55;;;2.20;;
20511;SDS011;10414;52.074;5.126;2023-07-29T04:08:29;6.20;;;2.70;;
20511;SDS011;10414;52.074;5.126;2023-07-29T04:10:56;7.93;;;2.58;;
20511;SDS011;10414;52.074;5.126;2023-07-29T04:13:22;5.65;;;2.40;;
20511;SDS011;10414;52.074;5.126;2023-07-29T04:15:51;6.32;;;2.20;;
20511;SDS011;10414;52.074;5.126;2023-07-29T04:18:17;5.60;;;2.20;;
20511;SDS011;10414;52.074;5.126;2023-07-29T04:20:44;4.65;;;2.42;;
20511;SDS011;10414;52.074;5.126;2023-07-29T04:23:11;5.60;;;2.33;;
20511;SDS011;10414;52.074;5.126;2023-07-29T04:25:38;6.10;;;2.30;;
20511;SDS011;10414;52.074;5.126;2023-07-29T04:28:05;5.43;;;2.20;;
20511;SDS011;10414;52.074;5.126;2023-07-29T04:30:31;4.60;;;2.25;;
20511;SDS011;10414;52.074;5.126;2023-07-29T04:33:02;5.25;;;2.70;;
20511;SDS011;10414;52.074;5.126;2023-07-29T04:35:28;7.03;;;2.53;;
20511;SDS011;10414;52.074;5.126;2023-07-29T04:37:58;6.05;;;2.50;;
20511;SDS011;10414;52.074;5.126;2023-07-29T04:40:25;7.00;;;2.60;;
20511;SDS011;10414;52.074;5.126;2023-07-29T04:42:51;6.35;;;2.50;;
20511;SDS011;10414;52.074;5.126;2023-07-29T04:45:18;6.65;;;2.33;;
20511;SDS011;10414;52.074;5.126;2023-07-29T04:47:45;6.40;;;2.53;;
20511;SDS011;10414;52.074;5.126;2023-07-29T04:50:13;7.97;;;2.80;;
20511;SDS011;10414;52.074;5.126;2023-07-29T04:52:40;5.43;;;2.22;;
20511;SDS011;10414;52.074;5.126;2023-07-29T04:55:07;6.40;;;2.40;;
20511;SDS011;10414;52.074;5.126;2023-07-29T04:57:34;5.88;;;2.50;;
20511;SDS011;10414;52.074;5.126;2023-07-29T05:00:01;7.53;;;2.97;;
20511;SDS011;10414;52.074;5.126;2023-07-29T05:02:30;8.80;;;2.97;;
20511;SDS011;10414;52.074;5.126;2023-07-29T05:04:57;5.20;;;2.45;;
20511;SDS011;10414;52.074;5.126;2023-07-29T05:07:28;8.25;;;2.60;;
20511;SDS011;10414;52.074;5.126;2023-07-29T05:09:55;7.15;;;2.72;;
20511;SDS011;10414;52.074;5.126;2023-07-29T05:12:22;7.30;;;2.60;;
20511;SDS011;10414;52.074;5.126;2023-07-29T05:14:49;7.43;;;3.22;;
20511;SDS011;10414;52.074;5.126;2023-07-29T05:17:15;9.13;;;3.35;;
20511;SDS011;10414;52.074;5.126;2023-07-29T05:19:44;6.72;;;2.88;;
20511;SDS011;10414;52.074;5.126;2023-07-29T05:22:11;7.53;;;3.33;;
20511;SDS011;10414;52.074;5.126;2023-07-29T05:24:39;5.85;;;2.88;;
20511;SDS011;10414;52.074;5.126;2023-07-29T05:27:09;7.28;;;3.08;;
20511;SDS011;10414;52.074;5.126;2023-07-29T05:29:38;7.00;;;3.08;;
20511;SDS011;10414;52.074;5.126;2023-07-29T05:32:05;10.60;;;3.42;;
20511;SDS011;10414;52.074;5.126;2023-07-29T05:34:32;6.88;;;3.25;;
20511;SDS011;10414;52.074;5.126;2023-07-29T05:36:59;10.20;;;3.53;;
20511;SDS011;10414;52.074;5.126;2023-07-29T05:39:26;8.35;;;3.97;;
20511;SDS011;10414;52.074;5.126;2023-07-29T05:41:54;8.15;;;3.25;;
20511;SDS011;10414;52.074;5.126;2023-07-29T05:44:21;7.25;;;3.28;;
20511;SDS011;10414;52.074;5.126;2023-07-29T05:46:48;8.27;;;3.70;;
20511;SDS011;10414;52.074;5.126;2023-07-29T05:49:18;9.93;;;3.58;;
20511;SDS011;10414;52.074;5.126;2023-07-29T05:51:44;7.65;;;3.47;;
20511;SDS011;10414;52.074;5.126;2023-07-29T05:54:11;8.13;;;3.63;;
20511;SDS011;10414;52.074;5.126;2023-07-29T05:56:41;7.70;;;3.50;;
20511;SDS011;10414;52.074;5.126;2023-07-29T05:59:10;8.38;;;3.45;;
20511;SDS011;10414;52.074;5.126;2023-07-29T06:01:37;7.15;;;3.25;;
20511;SDS011;10414;52.074;5.126;2023-07-29T06:04:04;7.20;;;3.30;;
20511;SDS011;10414;52.074;5.126;2023-07-29T06:06:31;7.57;;;3.42;;
20511;SDS011;10414;52.074;5.126;2023-07-29T06:08:57;8.73;;;3.70;;
20511;SDS011;10414;52.074;5.126;2023-07-29T06:11:24;8.20;;;3.53;;
20511;SDS011;10414;52.074;5.126;2023-07-29T06:13:51;7.05;;;3.28;;
20511;SDS011;10414;52.074;5.126;2023-07-29T06:16:19;9.95;;;3.00;;
20511;SDS011;10414;52.074;5.126;2023-07-29T06:18:46;8.75;;;3.47;;
20511;SDS011;10414;52.074;5.126;2023-07-29T06:21:15;9.13;;;3.55;;
20511;SDS011;10414;52.074;5.126;2023-07-29T06:23:44;9.95;;;4.00;;
20511;SDS011;10414;52.074;5.126;2023-07-29T06:26:10;9.30;;;3.40;;
20511;SDS011;10414;52.074;5.126;2023-07-29T06:28:37;8.48;;;3.97;;
20511;SDS011;10414;52.074;5.126;2023-07-29T06:31:06;8.45;;;3.63;;
20511;SDS011;10414;52.074;5.126;2023-07-29T06:33:37;6.70;;;3.28;;
20511;SDS011;10414;52.074;5.126;2023-07-29T06:36:04;8.90;;;3.50;;
20511;SDS011;10414;52.074;5.126;2023-07-29T06:38:31;7.18;;;3.65;;
20511;SDS011;10414;52.074;5.126;2023-07-29T06:40:58;7.45;;;3.72;;
20511;SDS011;10414;52.074;5.126;2023-07-29T06:43:24;6.20;;;3.30;;
20511;SDS011;10414;52.074;5.126;2023-07-29T06:45:54;8.13;;;3.72;;
20511;SDS011;10414;52.074;5.126;2023-07-29T06:48:20;7.90;;;3.72;;
20511;SDS011;10414;52.074;5.126;2023-07-29T06:50:49;10.73;;;3.97;;
20511;SDS011;10414;52.074;5.126;2023-07-29T06:53:17;8.25;;;4.40;;
20511;SDS011;10414;52.074;5.126;2023-07-29T06:55:44;9.00;;;4.05;;
20511;SDS011;10414;52.074;5.126;2023-07-29T06:58:11;10.25;;;3.70;;
20511;SDS011;10414;52.074;5.126;2023-07-29T07:00:37;8.77;;;4.78;;
20511;SDS011;10414;52.074;5.126;2023-07-29T07:03:04;6.90;;;3.33;;
20511;SDS011;10414;52.074;5.126;2023-07-29T07:05:31;9.18;;;3.97;;
20511;SDS011;10414;52.074;5.126;2023-07-29T07:07:59;7.90;;;3.95;;
20511;SDS011;10414;52.074;5.126;2023-07-29T07:10:28;8.23;;;3.50;;
20511;SDS011;10414;52.074;5.126;2023-07-29T07:12:55;7.60;;;4.30;;
20511;SDS011;10414;52.074;5.126;2023-07-29T07:15:22;6.68;;;3.92;;
20511;SDS011;10414;52.074;5.126;2023-07-29T07:17:49;8.13;;;4.35;;
20511;SDS011;10414;52.074;5.126;2023-07-29T07:20:17;12.52;;;4.53;;
20511;SDS011;10414;52.074;5.126;2023-07-29T07:22:44;8.55;;;3.75;;
20511;SDS011;10414;52.074;5.126;2023-07-29T07:25:14;7.97;;;4.13;;
20511;SDS011;10414;52.074;5.126;2023-07-29T07:27:41;7.07;;;3.70;;
20511;SDS011;10414;52.074;5.126;2023-07-29T07:30:08;7.20;;;3.50;;
20511;SDS011;10414;52.074;5.126;2023-07-29T07:32:35;6.53;;;3.15;;
20511;SDS011;10414;52.074;5.126;2023-07-29T07:35:03;8.25;;;3.40;;
20511;SDS011;10414;52.074;5.126;2023-07-29T07:37:30;8.60;;;3.78;;
20511;SDS011;10414;52.074;5.126;2023-07-29T07:39:57;5.85;;;3.42;;
20511;SDS011;10414;52.074;5.126;2023-07-29T07:42:27;7.70;;;3.42;;
20511;SDS011;10414;52.074;5.126;2023-07-29T07:44:55;8.48;;;3.22;;
20511;SDS011;10414;52.074;5.126;2023-07-29T07:47:22;6.18;;;3.10;;
20511;SDS011;10414;52.074;5.126;2023-07-29T07:49:49;6.68;;;3.50;;
20511;SDS011;10414;52.074;5.126;2023-07-29T07:52:16;4.78;;;2.95;;
20511;SDS011;10414;52.074;5.126;2023-07-29T07:54:42;9.13;;;3.13;;
20511;SDS011;10414;52.074;5.126;2023-07-29T07:57:09;5.20;;;2.63;;
20511;SDS011;10414;52.074;5.126;2023-07-29T07:59:38;6.45;;;2.85;;
20511;SDS011;10414;52.074;5.126;2023-07-29T08:02:06;5.82;;;2.88;;
20511;SDS011;10414;52.074;5.126;2023-07-29T08:04:33;3.97;;;2.30;;
20511;SDS011;10414;52.074;5.126;2023-07-29T08:07:00;7.50;;;2.75;;
20511;SDS011;10414;52.074;5.126;2023-07-29T08:09:27;8.38;;;2.88;;
20511;SDS011;10414;52.074;5.126;2023-07-29T08:11:56;6.45;;;2.80;;
20511;SDS011;10414;52.074;5.126;2023-07-29T08:14:23;7.18;;;2.90;;
20511;SDS011;10414;52.074;5.126;2023-07-29T08:16:54;5.85;;;3.30;;
20511;SDS011;10414;52.074;5.126;2023-07-29T08:19:21;7.07;;;2.92;;
20511;SDS011;10414;52.074;5.126;2023-07-29T08:21:48;6.80;;;3.10;;
20511;SDS011;10414;52.074;5.126;2023-07-29T08:24:17;7.38;;;3.00;;
20511;SDS011;10414;52.074;5.126;2023-07-29T08:26:44;6.85;;;3.05;;
20511;SDS011;10414;52.074;5.126;2023-07-29T08:29:11;7.75;;;2.88;;
20511;SDS011;10414;52.074;5.126;2023-07-29T08:31:38;6.97;;;3.20;;
20511;SDS011;10414;52.074;5.126;2023-07-29T08:34:07;5.45;;;2.90;;
20511;SDS011;10414;52.074;5.126;2023-07-29T08:36:33;8.73;;;3.25;;
20511;SDS011;10414;52.074;5.126;2023-07-29T08:39:00;8.38;;;3.10;;
20511;SDS011;10414;52.074;5.126;2023-07-29T08:41:37;6.22;;;3.45;;
20511;SDS011;10414;52.074;5.126;2023-07-29T08:44:10;8.68;;;3.42;;
20511;SDS011;10414;52.074;5.126;2023-07-29T08:46:45;6.55;;;3.70;;
20511;SDS011;10414;52.074;5.126;2023-07-29T08:49:18;7.50;;;3.20;;
20511;SDS011;10414;52.074;5.126;2023-07-29T08:51:47;6.38;;;3.20;;
20511;SDS011;10414;52.074;5.126;2023-07-29T08:54:16;6.03;;;3.08;;
20511;SDS011;10414;52.074;5.126;2023-07-29T08:56:48;5.90;;;2.70;;
20511;SDS011;10414;52.074;5.126;2023-07-29T08:59:16;6.47;;;2.63;;
20511;SDS011;10414;52.074;5.126;2023-07-29T09:01:44;4.70;;;2.90;;
20511;SDS011;10414;52.074;5.126;2023-07-29T09:04:11;6.50;;;3.10;;
20511;SDS011;10414;52.074;5.126;2023-07-29T09:06:39;5.05;;;2.90;;
20511;SDS011;10414;52.074;5.126;2023-07-29T09:09:12;9.38;;;3.15;;
20511;SDS011;10414;52.074;5.126;2023-07-29T09:11:39;6.15;;;3.20;;
20511;SDS011;10414;52.074;5.126;2023-07-29T09:14:06;5.30;;;3.17;;
20511;SDS011;10414;52.074;5.126;2023-07-29T09:16:33;8.13;;;3.67;;
20511;SDS011;10414;52.074;5.126;2023-07-29T09:19:00;7.35;;;3.17;;
20511;SDS011;10414;52.074;5.126;2023-07-29T09:21:30;6.97;;;3.60;;
20511;SDS011;10414;52.074;5.126;2023-07-29T09:24:02;8.20;;;3.60;;
20511;SDS011;10414;52.074;5.126;2023-07-29T09:26:30;8.00;;;3.65;;
20511;SDS011;10414;52.074;5.126;2023-07-29T09:28:59;6.85;;;3.63;;
20511;SDS011;10414;52.074;5.126;2023-07-29T09:31:27;6.53;;;3.83;;
20511;SDS011;10414;52.074;5.126;2023-07-29T09:33:55;7.07;;;4.43;;
20511;SDS011;10414;52.074;5.126;2023-07-29T09:38:52;8.80;;;4.95;;
20511;SDS011;10414;52.074;5.126;2023-07-29T09:41:23;8.52;;;5.60;;
20511;SDS011;10414;52.074;5.126;2023-07-29T09:43:55;11.52;;;5.70;;
20511;SDS011;10414;52.074;5.126;2023-07-29T09:46:24;7.57;;;5.45;;
20511;SDS011;10414;52.074;5.126;2023-07-29T09:48:55;10.48;;;5.50;;
20511;SDS011;10414;52.074;5.126;2023-07-29T09:51:23;8.10;;;5.13;;
20511;SDS011;10414;52.074;5.126;2023-07-29T09:53:50;9.52;;;5.43;;
20511;SDS011;10414;52.074;5.126;2023-07-29T09:56:18;8.55;;;4.75;;
20511;SDS011;10414;52.074;5.126;2023-07-29T09:58:52;8.90;;;5.03;;
20511;SDS011;10414;52.074;5.126;2023-07-29T10:01:21;8.65;;;4.88;;
20511;SDS011;10414;52.074;5.126;2023-07-29T10:03:48;10.60;;;5.05;;
20511;SDS011;10414;52.074;5.126;2023-07-29T10:06:15;7.63;;;4.57;;
20511;SDS011;10414;52.074;5.126;2023-07-29T10:08:44;6.45;;;4.35;;
20511;SDS011;10414;52.074;5.126;2023-07-29T10:11:14;7.30;;;4.60;;
20511;SDS011;10414;52.074;5.126;2023-07-29T10:13:41;7.55;;;4.30;;
20511;SDS011;10414;52.074;5.126;2023-07-29T10:16:10;7.53;;;4.50;;
20511;SDS011;10414;52.074;5.126;2023-07-29T10:18:41;8.43;;;4.35;;
20511;SDS011;10414;52.074;5.126;2023-07-29T10:21:11;8.07;;;3.90;;
20511;SDS011;10414;52.074;5.126;2023-07-29T10:23:41;5.72;;;3.13;;
20511;SDS011;10414;52.074;5.126;2023-07-29T10:26:11;5.00;;;3.47;;
20511;SDS011;10414;52.074;5.126;2023-07-29T10:28:44;5.55;;;3.25;;
20511;SDS011;10414;52.074;5.126;2023-07-29T10:31:16;6.57;;;3.35;;
20511;SDS011;10414;52.074;5.126;2023-07-29T10:33:43;5.97;;;3.53;;
20511;SDS011;10414;52.074;5.126;2023-07-29T10:36:11;4.65;;;3.20;;
20511;SDS011;10414;52.074;5.126;2023-07-29T10:38:41;5.43;;;3.20;;
20511;SDS011;10414;52.074;5.126;2023-07-29T10:41:07;8.25;;;3.28;;
20511;SDS011;10414;52.074;5.126;2023-07-29T10:43:35;6.50;;;3.13;;
20511;SDS011;10414;52.074;5.126;2023-07-29T10:48:53;5.35;;;2.20;;
20511;SDS011;10414;52.074;5.126;2023-07-29T10:51:28;6.47;;;1.80;;
20511;SDS011;10414;52.074;5.126;2023-07-29T10:53:56;8.50;;;2.10;;
20511;SDS011;10414;52.074;5.126;2023-07-29T10:56:27;4.68;;;1.95;;
20511;SDS011;10414;52.074;5.126;2023-07-29T10:58:56;6.15;;;2.45;;
20511;SDS011;10414;52.074;5.126;2023-07-29T11:01:30;4.45;;;2.33;;
20511;SDS011;10414;52.074;5.126;2023-07-29T11:09:52;6.72;;;1.75;;
20511;SDS011;10414;52.074;5.126;2023-07-29T11:12:39;4.70;;;1.55;;
20511;SDS011;10414;52.074;5.126;2023-07-29T11:15:13;4.03;;;1.40;;
20511;SDS011;10414;52.074;5.126;2023-07-29T11:17:43;4.03;;;1.40;;
20511;SDS011;10414;52.074;5.126;2023-07-29T11:20:14;3.22;;;1.40;;
20511;SDS011;10414;52.074;5.126;2023-07-29T11:22:41;3.63;;;1.65;;
20511;SDS011;10414;52.074;5.126;2023-07-29T11:25:09;3.20;;;1.50;;
20511;SDS011;10414;52.074;5.126;2023-07-29T11:27:37;3.20;;;1.40;;
20511;SDS011;10414;52.074;5.126;2023-07-29T11:30:06;4.18;;;1.80;;
20511;SDS011;10414;52.074;5.126;2023-07-29T11:32:34;3.13;;;1.55;;
20511;SDS011;10414;52.074;5.126;2023-07-29T11:35:05;3.55;;;1.58;;
20511;SDS011;10414;52.074;5.126;2023-07-29T11:37:36;4.22;;;1.80;;
20511;SDS011;10414;52.074;5.126;2023-07-29T11:40:04;4.82;;;2.08;;
20511;SDS011;10414;52.074;5.126;2023-07-29T11:42:32;3.50;;;1.90;;
20511;SDS011;10414;52.074;5.126;2023-07-29T11:44:59;4.65;;;1.90;;
20511;SDS011;10414;52.074;5.126;2023-07-29T11:47:36;5.95;;;2.10;;
20511;SDS011;10414;52.074;5.126;2023-07-29T11:50:07;7.97;;;2.05;;
20511;SDS011;10414;52.074;5.126;2023-07-29T11:52:36;4.18;;;1.60;;
20511;SDS011;10414;52.074;5.126;2023-07-29T11:55:04;4.30;;;1.90;;
20511;SDS011;10414;52.074;5.126;2023-07-29T11:57:32;3.45;;;2.00;;
20511;SDS011;10414;52.074;5.126;2023-07-29T12:00:01;4.07;;;1.70;;
20511;SDS011;10414;52.074;5.126;2023-07-29T12:02:31;3.78;;;1.65;;
20511;SDS011;10414;52.074;5.126;2023-07-29T12:04:59;4.35;;;1.85;;
20511;SDS011;10414;52.074;5.126;2023-07-29T12:07:28;3.85;;;1.65;;
20511;SDS011;10414;52.074;5.126;2023-07-29T12:09:55;4.90;;;1.60;;
20511;SDS011;10414;52.074;5.126;2023-07-29T12:12:25;3.70;;;1.80;;
20511;SDS011;10414;52.074;5.126;2023-07-29T12:14:53;5.53;;;1.67;;
20511;SDS011;10414;52.074;5.126;2023-07-29T12:17:21;3.85;;;1.98;;
20511;SDS011;10414;52.074;5.126;2023-07-29T12:19:53;3.53;;;1.93;;
20511;SDS011;10414;52.074;5.126;2023-07-29T12:22:21;3.75;;;2.00;;
20511;SDS011;10414;52.074;5.126;2023-07-29T12:24:50;4.88;;;1.95;;
20511;SDS011;10414;52.074;5.126;2023-07-29T12:27:21;4.07;;;1.85;;
20511;SDS011;10414;52.074;5.126;2023-07-29T12:29:48;4.93;;;1.80;;
20511;SDS011;10414;52.074;5.126;2023-07-29T12:32:18;3.83;;;2.00;;
20511;SDS011;10414;52.074;5.126;2023-07-29T12:34:44;3.55;;;1.80;;
20511;SDS011;10414;52.074;5.126;2023-07-29T12:37:11;4.40;;;1.88;;
20511;SDS011;10414;52.074;5.126;2023-07-29T12:39:39;5.45;;;2.00;;
20511;SDS011;10414;52.074;5.126;2023-07-29T12:42:08;4.18;;;1.90;;
20511;SDS011;10414;52.074;5.126;2023-07-29T12:44:37;3.97;;;2.15;;
20511;SDS011;10414;52.074;5.126;2023-07-29T12:47:05;4.07;;;1.92;;
20511;SDS011;10414;52.074;5.126;2023-07-29T12:49:34;3.75;;;1.98;;
20511;SDS011;10414;52.074;5.126;2023-07-29T12:52:00;7.20;;;2.25;;
20511;SDS011;10414;52.074;5.126;2023-07-29T12:54:27;4.78;;;2.50;;
20511;SDS011;10414;52.074;5.126;2023-07-29T12:56:54;3.30;;;1.77;;
20511;SDS011;10414;52.074;5.126;2023-07-29T12:59:22;4.65;;;1.83;;
20511;SDS011;10414;52.074;5.126;2023-07-29T13:01:49;3.58;;;1.55;;
20511;SDS011;10414;52.074;5.126;2023-07-29T13:04:16;4.53;;;2.08;;
20511;SDS011;10414;52.074;5.126;2023-07-29T13:06:43;6.07;;;1.90;;
20511;SDS011;10414;52.074;5.126;2023-07-29T13:09:10;6.85;;;2.05;;
20511;SDS011;10414;52.074;5.126;2023-07-29T13:11:40;4.15;;;2.10;;
20511;SDS011;10414;52.074;5.126;2023-07-29T13:14:06;4.05;;;1.77;;
20511;SDS011;10414;52.074;5.126;2023-07-29T13:16:35;4.13;;;2.00;;
20511;SDS011;10414;52.074;5.126;2023-07-29T13:19:02;4.90;;;1.85;;
20511;SDS011;10414;52.074;5.126;2023-07-29T13:21:31;4.80;;;2.20;;
20511;SDS011;10414;52.074;5.126;2023-07-29T13:23:58;4.50;;;1.92;;
20511;SDS011;10414;52.074;5.126;2023-07-29T13:26:25;4.72;;;2.00;;
20511;SDS011;10414;52.074;5.126;2023-07-29T13:28:52;3.65;;;1.90;;
20511;SDS011;10414;52.074;5.126;2023-07-29T13:33:52;4.95;;;1.88;;
20511;SDS011;10414;52.074;5.126;2023-07-29T13:36:21;5.10;;;1.92;;
20511;SDS011;10414;52.074;5.126;2023-07-29T13:38:48;4.88;;;1.80;;
20511;SDS011;10414;52.074;5.126;2023-07-29T13:41:18;4.07;;;1.80;;
20511;SDS011;10414;52.074;5.126;2023-07-29T13:43:47;4.65;;;1.65;;
20511;SDS011;10414;52.074;5.126;2023-07-29T13:46:17;3.80;;;1.80;;
20511;SDS011;10414;52.074;5.126;2023-07-29T13:48:46;3.20;;;1.58;;
20511;SDS011;10414;52.074;5.126;2023-07-29T13:51:14;3.80;;;1.60;;
20511;SDS011;10414;52.074;5.126;2023-07-29T13:53:41;5.63;;;1.90;;
20511;SDS011;10414;52.074;5.126;2023-07-29T13:56:08;3.75;;;1.33;;
20511;SDS011;10414;52.074;5.126;2023-07-29T13:58:34;3.60;;;1.50;;
20511;SDS011;10414;52.074;5.126;2023-07-29T14:01:14;5.70;;;1.73;;
20511;SDS011;10414;52.074;5.126;2023-07-29T14:03:41;4.03;;;1.50;;
20511;SDS011;10414;52.074;5.126;2023-07-29T14:06:10;3.90;;;1.50;;
20511;SDS011;10414;52.074;5.126;2023-07-29T14:08:38;3.33;;;1.52;;
20511;SDS011;10414;52.074;5.126;2023-07-29T14:11:06;4.60;;;1.50;;
20511;SDS011;10414;52.074;5.126;2023-07-29T14:13:32;5.13;;;1.40;;
20511;SDS011;10414;52.074;5.126;2023-07-29T14:16:00;2.85;;;1.00;;
20511;SDS011;10414;52.074;5.126;2023-07-29T14:18:27;3.55;;;1.00;;
20511;SDS011;10414;52.074;5.126;2023-07-29T14:20:54;4.55;;;1.20;;
20511;SDS011;10414;52.074;5.126;2023-07-29T14:23:21;2.20;;;1.00;;
20511;SDS011;10414;52.074;5.126;2023-07-29T14:25:49;3.97;;;1.20;;
20511;SDS011;10414;52.074;5.126;2023-07-29T14:28:16;2.78;;;1.05;;
20511;SDS011;10414;52.074;5.126;2023-07-29T14:30:46;3.17;;;0.93;;
20511;SDS011;10414;52.074;5.126;2023-07-29T14:33:13;4.78;;;1.30;;
20511;SDS011;10414;52.074;5.126;2023-07-29T14:35:39;4.88;;;1.20;;
20511;SDS011;10414;52.074;5.126;2023-07-29T14:38:06;3.42;;;1.20;;
20511;SDS011;10414;52.074;5.126;2023-07-29T14:40:33;3.20;;;1.10;;
20511;SDS011;10414;52.074;5.126;2023-07-29T14:43:04;3.05;;;1.00;;
20511;SDS011;10414;52.074;5.126;2023-07-29T14:45:31;4.18;;;1.23;;
20511;SDS011;10414;52.074;5.126;2023-07-29T14:47:58;3.35;;;1.13;;
20511;SDS011;10414;52.074;5.126;2023-07-29T14:50:24;3.30;;;1.15;;
20511;SDS011;10414;52.074;5.126;2023-07-29T14:52:51;4.65;;;1.40;;
20511;SDS011;10414;52.074;5.126;2023-07-29T14:55:18;3.05;;;1.20;;
20511;SDS011;10414;52.074;5.126;2023-07-29T14:57:45;2.38;;;0.90;;
20511;SDS011;10414;52.074;5.126;2023-07-29T15:00:14;2.95;;;1.10;;
20511;SDS011;10414;52.074;5.126;2023-07-29T15:02:41;3.70;;;1.10;;
20511;SDS011;10414;52.074;5.126;2023-07-29T15:05:08;3.70;;;1.20;;
20511;SDS011;10414;52.074;5.126;2023-07-29T15:07:36;2.83;;;1.20;;
20511;SDS011;10414;52.074;5.126;2023-07-29T15:10:03;3.58;;;1.30;;